sensor_id;sensor_type;location;lat;lon;timestamp;temperature;humidity
6988;DHT22;3534;49.960;8.018;2023-11-22T00:00:14;10.30;99.90
6988;DHT22;3534;49.960;8.018;2023-11-22T00:02:40;10.30;99.90
6988;DHT22;3534;49.960;8.018;2023-11-22T00:05:07;10.30;99.90
6988;DHT22;3534;49.960;8.018;2023-11-22T00:07:35;10.20;99.90
6988;DHT22;3534;49.960;8.018;2023-11-22T00:10:02;10.20;99.90
6988;DHT22;3534;49.960;8.018;2023-11-22T00:12:30;10.20;99.90
6988;DHT22;3534;49.960;8.018;2023-11-22T00:15:02;10.20;99.90
6988;DHT22;3534;49.960;8.018;2023-11-22T00:17:31;10.20;99.90
6988;DHT22;3534;49.960;8.018;2023-11-22T00:19:57;10.20;99.90
6988;DHT22;3534;49.960;8.018;2023-11-22T00:22:25;10.20;99.90
6988;DHT22;3534;49.960;8.018;2023-11-22T00:24:53;10.20;99.90
6988;DHT22;3534;49.960;8.018;2023-11-22T00:27:19;10.20;99.90
6988;DHT22;3534;49.960;8.018;2023-11-22T00:29:46;10.20;99.90
6988;DHT22;3534;49.960;8.018;2023-11-22T00:32:13;10.20;99.90
6988;DHT22;3534;49.960;8.018;2023-11-22T00:34:41;10.20;99.90
6988;DHT22;3534;49.960;8.018;2023-11-22T00:37:08;10.20;99.90
6988;DHT22;3534;49.960;8.018;2023-11-22T00:39:34;10.10;99.90
6988;DHT22;3534;49.960;8.018;2023-11-22T00:42:00;10.20;99.90
6988;DHT22;3534;49.960;8.018;2023-11-22T00:44:27;10.10;99.90
6988;DHT22;3534;49.960;8.018;2023-11-22T00:46:53;10.10;99.90
6988;DHT22;3534;49.960;8.018;2023-11-22T00:49:21;10.00;99.90
6988;DHT22;3534;49.960;8.018;2023-11-22T00:51:49;10.00;99.90
6988;DHT22;3534;49.960;8.018;2023-11-22T00:54:16;10.00;99.90
6988;DHT22;3534;49.960;8.018;2023-11-22T00:56:44;10.00;99.90
6988;DHT22;3534;49.960;8.018;2023-11-22T00:59:11;10.00;99.90
6988;DHT22;3534;49.960;8.018;2023-11-22T01:01:37;10.00;99.90
6988;DHT22;3534;49.960;8.018;2023-11-22T01:04:04;10.00;99.90
6988;DHT22;3534;49.960;8.018;2023-11-22T01:06:32;9.90;99.90
6988;DHT22;3534;49.960;8.018;2023-11-22T01:09:00;9.90;99.90
6988;DHT22;3534;49.960;8.018;2023-11-22T01:11:27;10.00;99.90
6988;DHT22;3534;49.960;8.018;2023-11-22T01:13:54;9.90;99.90
6988;DHT22;3534;49.960;8.018;2023-11-22T01:16:21;9.80;99.90
6988;DHT22;3534;49.960;8.018;2023-11-22T01:18:48;9.80;99.90
6988;DHT22;3534;49.960;8.018;2023-11-22T01:21:14;9.70;99.90
6988;DHT22;3534;49.960;8.018;2023-11-22T01:23:41;9.70;99.90
6988;DHT22;3534;49.960;8.018;2023-11-22T01:26:09;9.70;99.90
6988;DHT22;3534;49.960;8.018;2023-11-22T01:28:36;9.70;99.90
6988;DHT22;3534;49.960;8.018;2023-11-22T01:31:02;9.70;99.90
6988;DHT22;3534;49.960;8.018;2023-11-22T01:33:30;9.70;99.90
6988;DHT22;3534;49.960;8.018;2023-11-22T01:35:57;9.60;99.90
6988;DHT22;3534;49.960;8.018;2023-11-22T01:38:24;9.60;99.90
6988;DHT22;3534;49.960;8.018;2023-11-22T01:40:51;9.60;99.90
6988;DHT22;3534;49.960;8.018;2023-11-22T01:43:20;9.60;99.90
6988;DHT22;3534;49.960;8.018;2023-11-22T01:45:49;9.50;99.90
6988;DHT22;3534;49.960;8.018;2023-11-22T01:48:16;9.50;99.90
6988;DHT22;3534;49.960;8.018;2023-11-22T01:50:43;9.50;99.90
6988;DHT22;3534;49.960;8.018;2023-11-22T01:53:11;9.50;99.90
6988;DHT22;3534;49.960;8.018;2023-11-22T01:55:39;9.50;99.90
6988;DHT22;3534;49.960;8.018;2023-11-22T01:58:06;9.40;99.90
6988;DHT22;3534;49.960;8.018;2023-11-22T02:00:36;9.40;99.90
6988;DHT22;3534;49.960;8.018;2023-11-22T02:03:08;9.40;99.90
6988;DHT22;3534;49.960;8.018;2023-11-22T02:05:34;9.40;99.90
6988;DHT22;3534;49.960;8.018;2023-11-22T02:08:01;9.40;99.90
6988;DHT22;3534;49.960;8.018;2023-11-22T02:10:28;9.30;99.90
6988;DHT22;3534;49.960;8.018;2023-11-22T02:12:56;9.30;99.90
6988;DHT22;3534;49.960;8.018;2023-11-22T02:15:24;9.30;99.90
6988;DHT22;3534;49.960;8.018;2023-11-22T02:17:52;9.30;99.90
6988;DHT22;3534;49.960;8.018;2023-11-22T02:20:18;9.20;99.90
6988;DHT22;3534;49.960;8.018;2023-11-22T02:22:46;9.30;99.90
6988;DHT22;3534;49.960;8.018;2023-11-22T02:25:14;9.20;99.90
6988;DHT22;3534;49.960;8.018;2023-11-22T02:27:41;9.20;99.90
6988;DHT22;3534;49.960;8.018;2023-11-22T02:30:09;9.20;99.90
6988;DHT22;3534;49.960;8.018;2023-11-22T02:32:36;9.20;99.90
6988;DHT22;3534;49.960;8.018;2023-11-22T02:35:04;9.20;99.90
6988;DHT22;3534;49.960;8.018;2023-11-22T02:37:33;9.10;99.90
6988;DHT22;3534;49.960;8.018;2023-11-22T02:40:06;9.10;99.90
6988;DHT22;3534;49.960;8.018;2023-11-22T02:42:37;9.10;99.90
6988;DHT22;3534;49.960;8.018;2023-11-22T02:45:04;9.10;99.90
6988;DHT22;3534;49.960;8.018;2023-11-22T02:47:31;9.10;99.90
6988;DHT22;3534;49.960;8.018;2023-11-22T02:50:00;9.20;99.90
6988;DHT22;3534;49.960;8.018;2023-11-22T02:52:27;9.20;99.90
6988;DHT22;3534;49.960;8.018;2023-11-22T02:54:54;9.20;99.90
6988;DHT22;3534;49.960;8.018;2023-11-22T02:57:20;9.20;99.90
6988;DHT22;3534;49.960;8.018;2023-11-22T02:59:48;9.20;99.90
6988;DHT22;3534;49.960;8.018;2023-11-22T03:02:15;9.20;99.90
6988;DHT22;3534;49.960;8.018;2023-11-22T03:04:42;9.20;99.90
6988;DHT22;3534;49.960;8.018;2023-11-22T03:07:09;9.20;99.90
6988;DHT22;3534;49.960;8.018;2023-11-22T03:09:36;9.20;99.90
6988;DHT22;3534;49.960;8.018;2023-11-22T03:12:03;9.20;99.90
6988;DHT22;3534;49.960;8.018;2023-11-22T03:14:30;9.10;99.90
6988;DHT22;3534;49.960;8.018;2023-11-22T03:16:58;9.20;99.90
6988;DHT22;3534;49.960;8.018;2023-11-22T03:19:25;9.20;99.90
6988;DHT22;3534;49.960;8.018;2023-11-22T03:21:51;9.10;99.90
6988;DHT22;3534;49.960;8.018;2023-11-22T03:24:18;9.10;99.90
6988;DHT22;3534;49.960;8.018;2023-11-22T03:26:45;9.10;99.90
6988;DHT22;3534;49.960;8.018;2023-11-22T03:29:11;9.10;99.90
6988;DHT22;3534;49.960;8.018;2023-11-22T03:31:38;9.10;99.90
6988;DHT22;3534;49.960;8.018;2023-11-22T03:34:06;9.00;99.90
6988;DHT22;3534;49.960;8.018;2023-11-22T03:36:33;9.00;99.90
6988;DHT22;3534;49.960;8.018;2023-11-22T03:39:00;9.00;99.90
6988;DHT22;3534;49.960;8.018;2023-11-22T03:41:26;9.00;99.90
6988;DHT22;3534;49.960;8.018;2023-11-22T03:43:53;9.00;99.90
6988;DHT22;3534;49.960;8.018;2023-11-22T03:46:20;8.90;99.90
6988;DHT22;3534;49.960;8.018;2023-11-22T03:48:46;8.90;99.90
6988;DHT22;3534;49.960;8.018;2023-11-22T03:51:14;8.90;99.90
6988;DHT22;3534;49.960;8.018;2023-11-22T03:53:41;8.90;99.90
6988;DHT22;3534;49.960;8.018;2023-11-22T03:56:08;8.90;99.90
6988;DHT22;3534;49.960;8.018;2023-11-22T03:58:35;8.80;99.90
6988;DHT22;3534;49.960;8.018;2023-11-22T04:01:02;8.80;99.90
6988;DHT22;3534;49.960;8.018;2023-11-22T04:03:29;8.80;99.90
6988;DHT22;3534;49.960;8.018;2023-11-22T04:05:55;8.70;99.90
6988;DHT22;3534;49.960;8.018;2023-11-22T04:08:23;8.70;99.90
6988;DHT22;3534;49.960;8.018;2023-11-22T04:10:50;8.70;99.90
6988;DHT22;3534;49.960;8.018;2023-11-22T04:13:17;8.70;99.90
6988;DHT22;3534;49.960;8.018;2023-11-22T04:15:44;8.70;99.90
6988;DHT22;3534;49.960;8.018;2023-11-22T04:18:11;8.70;99.90
6988;DHT22;3534;49.960;8.018;2023-11-22T04:20:37;8.60;99.90
6988;DHT22;3534;49.960;8.018;2023-11-22T04:23:05;8.60;99.90
6988;DHT22;3534;49.960;8.018;2023-11-22T04:25:32;8.60;99.90
6988;DHT22;3534;49.960;8.018;2023-11-22T04:30:28;8.50;99.90
6988;DHT22;3534;49.960;8.018;2023-11-22T04:32:55;8.50;99.90
6988;DHT22;3534;49.960;8.018;2023-11-22T04:35:21;8.50;99.90
6988;DHT22;3534;49.960;8.018;2023-11-22T04:37:48;8.50;99.90
6988;DHT22;3534;49.960;8.018;2023-11-22T04:40:15;8.40;99.90
6988;DHT22;3534;49.960;8.018;2023-11-22T04:42:44;8.40;99.90
6988;DHT22;3534;49.960;8.018;2023-11-22T04:45:11;8.40;99.90
6988;DHT22;3534;49.960;8.018;2023-11-22T04:47:38;8.30;99.90
6988;DHT22;3534;49.960;8.018;2023-11-22T04:50:06;8.30;99.90
6988;DHT22;3534;49.960;8.018;2023-11-22T04:52:32;8.20;99.90
6988;DHT22;3534;49.960;8.018;2023-11-22T04:54:59;8.20;99.90
6988;DHT22;3534;49.960;8.018;2023-11-22T04:57:26;8.20;99.90
6988;DHT22;3534;49.960;8.018;2023-11-22T04:59:54;8.20;99.90
6988;DHT22;3534;49.960;8.018;2023-11-22T05:02:20;8.20;99.90
6988;DHT22;3534;49.960;8.018;2023-11-22T05:04:47;8.20;99.90
6988;DHT22;3534;49.960;8.018;2023-11-22T05:07:15;8.10;99.90
6988;DHT22;3534;49.960;8.018;2023-11-22T05:09:42;8.10;99.90
6988;DHT22;3534;49.960;8.018;2023-11-22T05:12:09;8.10;99.90
6988;DHT22;3534;49.960;8.018;2023-11-22T05:14:36;8.10;99.90
6988;DHT22;3534;49.960;8.018;2023-11-22T05:17:05;8.00;99.90
6988;DHT22;3534;49.960;8.018;2023-11-22T05:19:31;8.00;99.90
6988;DHT22;3534;49.960;8.018;2023-11-22T05:21:58;8.00;99.90
6988;DHT22;3534;49.960;8.018;2023-11-22T05:24:25;7.90;99.90
6988;DHT22;3534;49.960;8.018;2023-11-22T05:26:52;7.90;99.90
6988;DHT22;3534;49.960;8.018;2023-11-22T05:29:19;7.90;99.90
6988;DHT22;3534;49.960;8.018;2023-11-22T05:31:45;7.80;99.90
6988;DHT22;3534;49.960;8.018;2023-11-22T05:34:14;7.80;99.90
6988;DHT22;3534;49.960;8.018;2023-11-22T05:36:40;7.80;99.90
6988;DHT22;3534;49.960;8.018;2023-11-22T05:39:07;7.80;99.90
6988;DHT22;3534;49.960;8.018;2023-11-22T05:41:34;7.80;99.90
6988;DHT22;3534;49.960;8.018;2023-11-22T05:44:01;7.80;99.90
6988;DHT22;3534;49.960;8.018;2023-11-22T05:46:29;7.80;99.90
6988;DHT22;3534;49.960;8.018;2023-11-22T05:48:55;7.70;99.90
6988;DHT22;3534;49.960;8.018;2023-11-22T05:51:23;7.70;99.90
6988;DHT22;3534;49.960;8.018;2023-11-22T05:53:50;7.70;99.90
6988;DHT22;3534;49.960;8.018;2023-11-22T05:56:17;7.60;99.90
6988;DHT22;3534;49.960;8.018;2023-11-22T05:58:44;7.60;99.90
6988;DHT22;3534;49.960;8.018;2023-11-22T06:01:11;7.60;99.90
6988;DHT22;3534;49.960;8.018;2023-11-22T06:03:38;7.60;99.90
6988;DHT22;3534;49.960;8.018;2023-11-22T06:06:05;7.50;99.90
6988;DHT22;3534;49.960;8.018;2023-11-22T06:08:33;7.50;99.90
6988;DHT22;3534;49.960;8.018;2023-11-22T06:11:00;7.50;99.90
6988;DHT22;3534;49.960;8.018;2023-11-22T06:13:28;7.50;99.90
6988;DHT22;3534;49.960;8.018;2023-11-22T06:15:54;7.50;99.90
6988;DHT22;3534;49.960;8.018;2023-11-22T06:18:21;7.50;99.90
6988;DHT22;3534;49.960;8.018;2023-11-22T06:20:48;7.50;99.90
6988;DHT22;3534;49.960;8.018;2023-11-22T06:23:15;7.50;99.90
6988;DHT22;3534;49.960;8.018;2023-11-22T06:25:43;7.50;99.90
6988;DHT22;3534;49.960;8.018;2023-11-22T06:28:10;7.50;99.90
6988;DHT22;3534;49.960;8.018;2023-11-22T06:30:37;7.50;99.90
6988;DHT22;3534;49.960;8.018;2023-11-22T06:33:04;7.50;99.90
6988;DHT22;3534;49.960;8.018;2023-11-22T06:35:31;7.50;99.90
6988;DHT22;3534;49.960;8.018;2023-11-22T06:37:58;7.50;99.90
6988;DHT22;3534;49.960;8.018;2023-11-22T06:40:25;7.40;99.90
6988;DHT22;3534;49.960;8.018;2023-11-22T06:42:53;7.40;99.90
6988;DHT22;3534;49.960;8.018;2023-11-22T06:45:19;7.40;99.90
6988;DHT22;3534;49.960;8.018;2023-11-22T06:47:46;7.40;99.90
6988;DHT22;3534;49.960;8.018;2023-11-22T06:50:13;7.40;99.90
6988;DHT22;3534;49.960;8.018;2023-11-22T06:52:39;7.40;99.90
6988;DHT22;3534;49.960;8.018;2023-11-22T06:55:07;7.30;99.90
6988;DHT22;3534;49.960;8.018;2023-11-22T06:57:34;7.30;99.90
6988;DHT22;3534;49.960;8.018;2023-11-22T07:00:03;7.30;99.90
6988;DHT22;3534;49.960;8.018;2023-11-22T07:02:31;7.20;99.90
6988;DHT22;3534;49.960;8.018;2023-11-22T07:04:57;7.20;99.90
6988;DHT22;3534;49.960;8.018;2023-11-22T07:07:24;7.20;99.90
6988;DHT22;3534;49.960;8.018;2023-11-22T07:09:51;7.10;99.90
6988;DHT22;3534;49.960;8.018;2023-11-22T07:12:18;7.10;99.90
6988;DHT22;3534;49.960;8.018;2023-11-22T07:14:45;7.10;99.90
6988;DHT22;3534;49.960;8.018;2023-11-22T07:17:15;7.10;99.90
6988;DHT22;3534;49.960;8.018;2023-11-22T07:19:43;7.10;99.90
6988;DHT22;3534;49.960;8.018;2023-11-22T07:22:12;7.10;99.90
6988;DHT22;3534;49.960;8.018;2023-11-22T07:24:42;7.10;99.90
6988;DHT22;3534;49.960;8.018;2023-11-22T07:27:10;7.10;99.90
6988;DHT22;3534;49.960;8.018;2023-11-22T07:29:37;7.00;99.90
6988;DHT22;3534;49.960;8.018;2023-11-22T07:32:04;7.00;99.90
6988;DHT22;3534;49.960;8.018;2023-11-22T07:34:32;7.10;99.90
6988;DHT22;3534;49.960;8.018;2023-11-22T07:36:59;7.10;99.90
6988;DHT22;3534;49.960;8.018;2023-11-22T07:39:26;7.00;99.90
6988;DHT22;3534;49.960;8.018;2023-11-22T07:41:53;7.00;99.90
6988;DHT22;3534;49.960;8.018;2023-11-22T07:44:20;7.00;99.90
6988;DHT22;3534;49.960;8.018;2023-11-22T07:46:47;7.00;99.90
6988;DHT22;3534;49.960;8.018;2023-11-22T07:49:14;7.00;99.90
6988;DHT22;3534;49.960;8.018;2023-11-22T07:51:44;7.00;99.90
6988;DHT22;3534;49.960;8.018;2023-11-22T07:54:11;7.00;99.90
6988;DHT22;3534;49.960;8.018;2023-11-22T07:56:40;7.00;99.90
6988;DHT22;3534;49.960;8.018;2023-11-22T07:59:08;7.00;99.90
6988;DHT22;3534;49.960;8.018;2023-11-22T08:01:36;7.00;99.90
6988;DHT22;3534;49.960;8.018;2023-11-22T08:04:03;7.10;99.90
6988;DHT22;3534;49.960;8.018;2023-11-22T08:06:31;7.10;99.90
6988;DHT22;3534;49.960;8.018;2023-11-22T08:09:29;7.00;99.90
6988;DHT22;3534;49.960;8.018;2023-11-22T08:11:58;7.00;99.90
6988;DHT22;3534;49.960;8.018;2023-11-22T08:14:26;7.10;99.90
6988;DHT22;3534;49.960;8.018;2023-11-22T08:16:53;7.10;99.90
6988;DHT22;3534;49.960;8.018;2023-11-22T08:19:20;7.10;99.90
6988;DHT22;3534;49.960;8.018;2023-11-22T08:21:47;7.10;99.90
6988;DHT22;3534;49.960;8.018;2023-11-22T08:24:14;7.10;99.90
6988;DHT22;3534;49.960;8.018;2023-11-22T08:26:42;7.10;99.90
6988;DHT22;3534;49.960;8.018;2023-11-22T08:29:09;7.20;99.90
6988;DHT22;3534;49.960;8.018;2023-11-22T08:31:36;7.20;99.90
6988;DHT22;3534;49.960;8.018;2023-11-22T08:34:03;7.20;99.90
6988;DHT22;3534;49.960;8.018;2023-11-22T08:36:32;7.20;99.90
6988;DHT22;3534;49.960;8.018;2023-11-22T08:38:59;7.20;99.90
6988;DHT22;3534;49.960;8.018;2023-11-22T08:41:26;7.20;99.90
6988;DHT22;3534;49.960;8.018;2023-11-22T08:43:57;7.20;99.90
6988;DHT22;3534;49.960;8.018;2023-11-22T08:46:23;7.30;99.90
6988;DHT22;3534;49.960;8.018;2023-11-22T08:48:50;7.20;99.90
6988;DHT22;3534;49.960;8.018;2023-11-22T08:51:17;7.20;99.90
6988;DHT22;3534;49.960;8.018;2023-11-22T08:53:44;7.30;99.90
6988;DHT22;3534;49.960;8.018;2023-11-22T08:56:10;7.30;99.90
6988;DHT22;3534;49.960;8.018;2023-11-22T08:58:37;7.30;99.90
6988;DHT22;3534;49.960;8.018;2023-11-22T09:01:05;7.30;99.90
6988;DHT22;3534;49.960;8.018;2023-11-22T09:03:33;7.30;99.90
6988;DHT22;3534;49.960;8.018;2023-11-22T09:06:00;7.40;99.90
6988;DHT22;3534;49.960;8.018;2023-11-22T09:08:28;7.40;99.90
6988;DHT22;3534;49.960;8.018;2023-11-22T09:10:55;7.40;99.90
6988;DHT22;3534;49.960;8.018;2023-11-22T09:13:22;7.30;99.90
6988;DHT22;3534;49.960;8.018;2023-11-22T09:15:50;7.40;99.90
6988;DHT22;3534;49.960;8.018;2023-11-22T09:18:18;7.50;99.90
6988;DHT22;3534;49.960;8.018;2023-11-22T09:20:44;7.50;99.90
6988;DHT22;3534;49.960;8.018;2023-11-22T09:23:11;7.50;99.90
6988;DHT22;3534;49.960;8.018;2023-11-22T09:25:39;7.50;99.90
6988;DHT22;3534;49.960;8.018;2023-11-22T09:28:06;7.50;99.90
6988;DHT22;3534;49.960;8.018;2023-11-22T09:30:35;7.50;99.90
6988;DHT22;3534;49.960;8.018;2023-11-22T09:33:05;7.40;99.90
6988;DHT22;3534;49.960;8.018;2023-11-22T09:35:34;7.50;99.90
6988;DHT22;3534;49.960;8.018;2023-11-22T09:38:02;7.60;99.90
6988;DHT22;3534;49.960;8.018;2023-11-22T09:40:29;7.60;99.90
6988;DHT22;3534;49.960;8.018;2023-11-22T09:42:57;7.60;99.90
6988;DHT22;3534;49.960;8.018;2023-11-22T09:45:25;7.60;99.90
6988;DHT22;3534;49.960;8.018;2023-11-22T09:47:51;7.70;99.90
6988;DHT22;3534;49.960;8.018;2023-11-22T09:50:20;7.70;99.90
6988;DHT22;3534;49.960;8.018;2023-11-22T09:52:51;7.80;99.90
6988;DHT22;3534;49.960;8.018;2023-11-22T09:55:20;7.90;99.90
6988;DHT22;3534;49.960;8.018;2023-11-22T09:57:47;8.00;99.90
6988;DHT22;3534;49.960;8.018;2023-11-22T10:00:16;8.00;99.90
6988;DHT22;3534;49.960;8.018;2023-11-22T10:02:44;8.10;99.90
6988;DHT22;3534;49.960;8.018;2023-11-22T10:05:11;8.20;99.90
6988;DHT22;3534;49.960;8.018;2023-11-22T10:07:38;8.30;99.90
6988;DHT22;3534;49.960;8.018;2023-11-22T10:10:07;8.30;99.90
6988;DHT22;3534;49.960;8.018;2023-11-22T10:12:36;8.40;99.90
6988;DHT22;3534;49.960;8.018;2023-11-22T10:15:12;8.30;99.90
6988;DHT22;3534;49.960;8.018;2023-11-22T10:17:39;8.30;99.90
6988;DHT22;3534;49.960;8.018;2023-11-22T10:20:07;8.30;99.90
6988;DHT22;3534;49.960;8.018;2023-11-22T10:22:43;8.40;99.90
6988;DHT22;3534;49.960;8.018;2023-11-22T10:25:12;8.60;99.90
6988;DHT22;3534;49.960;8.018;2023-11-22T10:27:39;8.60;99.90
6988;DHT22;3534;49.960;8.018;2023-11-22T10:30:07;8.80;99.90
6988;DHT22;3534;49.960;8.018;2023-11-22T10:32:36;9.00;99.90
6988;DHT22;3534;49.960;8.018;2023-11-22T10:35:05;9.10;99.90
6988;DHT22;3534;49.960;8.018;2023-11-22T10:37:33;9.20;99.90
6988;DHT22;3534;49.960;8.018;2023-11-22T10:40:01;9.30;99.90
6988;DHT22;3534;49.960;8.018;2023-11-22T10:42:31;9.40;99.90
6988;DHT22;3534;49.960;8.018;2023-11-22T10:45:00;9.50;99.90
6988;DHT22;3534;49.960;8.018;2023-11-22T10:47:30;9.60;99.90
6988;DHT22;3534;49.960;8.018;2023-11-22T10:49:57;9.60;99.90
6988;DHT22;3534;49.960;8.018;2023-11-22T10:52:27;9.70;99.90
6988;DHT22;3534;49.960;8.018;2023-11-22T10:55:02;9.70;99.90
6988;DHT22;3534;49.960;8.018;2023-11-22T10:57:32;9.70;99.90
6988;DHT22;3534;49.960;8.018;2023-11-22T11:00:02;9.80;99.90
6988;DHT22;3534;49.960;8.018;2023-11-22T11:02:35;9.80;99.90
6988;DHT22;3534;49.960;8.018;2023-11-22T11:05:10;9.70;99.90
6988;DHT22;3534;49.960;8.018;2023-11-22T11:07:47;9.60;99.90
6988;DHT22;3534;49.960;8.018;2023-11-22T11:10:15;9.50;99.90
6988;DHT22;3534;49.960;8.018;2023-11-22T11:12:45;9.60;99.90
6988;DHT22;3534;49.960;8.018;2023-11-22T11:15:12;9.60;99.90
6988;DHT22;3534;49.960;8.018;2023-11-22T11:17:40;9.60;99.90
6988;DHT22;3534;49.960;8.018;2023-11-22T11:20:08;9.60;99.90
6988;DHT22;3534;49.960;8.018;2023-11-22T11:22:38;9.70;99.90
6988;DHT22;3534;49.960;8.018;2023-11-22T11:25:05;9.80;99.90
6988;DHT22;3534;49.960;8.018;2023-11-22T11:27:34;9.70;99.90
6988;DHT22;3534;49.960;8.018;2023-11-22T11:30:43;9.70;99.90
6988;DHT22;3534;49.960;8.018;2023-11-22T11:33:12;9.70;99.90
6988;DHT22;3534;49.960;8.018;2023-11-22T11:35:43;9.80;99.90
6988;DHT22;3534;49.960;8.018;2023-11-22T11:38:12;9.90;99.90
6988;DHT22;3534;49.960;8.018;2023-11-22T11:40:40;9.90;99.90
6988;DHT22;3534;49.960;8.018;2023-11-22T11:43:07;10.00;99.90
6988;DHT22;3534;49.960;8.018;2023-11-22T11:45:36;10.30;99.90
6988;DHT22;3534;49.960;8.018;2023-11-22T11:48:06;10.60;99.90
6988;DHT22;3534;49.960;8.018;2023-11-22T11:50:33;10.80;99.90
6988;DHT22;3534;49.960;8.018;2023-11-22T11:53:00;11.00;99.90
6988;DHT22;3534;49.960;8.018;2023-11-22T11:55:26;11.30;99.90
6988;DHT22;3534;49.960;8.018;2023-11-22T11:57:54;11.50;99.90
6988;DHT22;3534;49.960;8.018;2023-11-22T12:00:20;11.50;99.90
6988;DHT22;3534;49.960;8.018;2023-11-22T12:02:49;11.70;99.90
6988;DHT22;3534;49.960;8.018;2023-11-22T12:05:19;11.80;99.90
6988;DHT22;3534;49.960;8.018;2023-11-22T12:07:46;12.00;99.90
6988;DHT22;3534;49.960;8.018;2023-11-22T12:10:13;12.20;99.90
6988;DHT22;3534;49.960;8.018;2023-11-22T12:12:39;12.40;99.90
6988;DHT22;3534;49.960;8.018;2023-11-22T12:15:09;12.40;99.90
6988;DHT22;3534;49.960;8.018;2023-11-22T12:17:36;12.50;99.90
6988;DHT22;3534;49.960;8.018;2023-11-22T12:20:10;12.60;99.90
6988;DHT22;3534;49.960;8.018;2023-11-22T12:22:40;12.50;99.90
6988;DHT22;3534;49.960;8.018;2023-11-22T12:25:08;12.50;99.90
6988;DHT22;3534;49.960;8.018;2023-11-22T12:27:38;12.50;99.90
6988;DHT22;3534;49.960;8.018;2023-11-22T12:30:07;12.40;99.90
6988;DHT22;3534;49.960;8.018;2023-11-22T12:32:33;12.50;99.90
6988;DHT22;3534;49.960;8.018;2023-11-22T12:35:00;12.60;99.90
6988;DHT22;3534;49.960;8.018;2023-11-22T12:37:29;12.80;99.90
6988;DHT22;3534;49.960;8.018;2023-11-22T12:39:58;12.70;99.90
6988;DHT22;3534;49.960;8.018;2023-11-22T12:42:25;12.80;99.90
6988;DHT22;3534;49.960;8.018;2023-11-22T12:44:53;12.60;99.90
6988;DHT22;3534;49.960;8.018;2023-11-22T12:47:32;12.20;99.90
6988;DHT22;3534;49.960;8.018;2023-11-22T12:50:01;11.80;99.90
6988;DHT22;3534;49.960;8.018;2023-11-22T12:52:28;11.60;99.90
6988;DHT22;3534;49.960;8.018;2023-11-22T12:54:54;11.70;99.90
6988;DHT22;3534;49.960;8.018;2023-11-22T12:57:22;11.90;99.90
6988;DHT22;3534;49.960;8.018;2023-11-22T12:59:49;12.20;99.90
6988;DHT22;3534;49.960;8.018;2023-11-22T13:02:16;12.40;99.90
6988;DHT22;3534;49.960;8.018;2023-11-22T13:04:43;12.50;99.90
6988;DHT22;3534;49.960;8.018;2023-11-22T13:07:11;12.80;99.90
6988;DHT22;3534;49.960;8.018;2023-11-22T13:09:38;13.00;99.90
6988;DHT22;3534;49.960;8.018;2023-11-22T13:12:05;13.00;99.90
6988;DHT22;3534;49.960;8.018;2023-11-22T13:14:33;13.20;99.90
6988;DHT22;3534;49.960;8.018;2023-11-22T13:17:03;13.40;99.90
6988;DHT22;3534;49.960;8.018;2023-11-22T13:19:32;13.40;99.90
6988;DHT22;3534;49.960;8.018;2023-11-22T13:21:58;13.60;99.90
6988;DHT22;3534;49.960;8.018;2023-11-22T13:24:25;13.60;99.90
6988;DHT22;3534;49.960;8.018;2023-11-22T13:26:52;13.60;99.90
6988;DHT22;3534;49.960;8.018;2023-11-22T13:29:19;13.50;99.90
6988;DHT22;3534;49.960;8.018;2023-11-22T13:31:46;13.40;99.90
6988;DHT22;3534;49.960;8.018;2023-11-22T13:34:13;13.30;99.90
6988;DHT22;3534;49.960;8.018;2023-11-22T13:36:40;13.20;99.90
6988;DHT22;3534;49.960;8.018;2023-11-22T13:39:06;13.10;99.90
6988;DHT22;3534;49.960;8.018;2023-11-22T13:41:33;13.00;99.90
6988;DHT22;3534;49.960;8.018;2023-11-22T13:44:00;12.90;99.90
6988;DHT22;3534;49.960;8.018;2023-11-22T13:46:27;13.00;99.90
6988;DHT22;3534;49.960;8.018;2023-11-22T13:48:56;13.00;99.90
6988;DHT22;3534;49.960;8.018;2023-11-22T13:51:23;13.10;99.90
6988;DHT22;3534;49.960;8.018;2023-11-22T13:53:50;13.20;99.90
6988;DHT22;3534;49.960;8.018;2023-11-22T13:56:18;13.30;99.90
6988;DHT22;3534;49.960;8.018;2023-11-22T13:58:45;13.40;99.90
6988;DHT22;3534;49.960;8.018;2023-11-22T14:01:12;13.40;99.90
6988;DHT22;3534;49.960;8.018;2023-11-22T14:03:46;13.40;99.90
6988;DHT22;3534;49.960;8.018;2023-11-22T14:06:14;13.30;99.90
6988;DHT22;3534;49.960;8.018;2023-11-22T14:08:42;13.10;99.90
6988;DHT22;3534;49.960;8.018;2023-11-22T14:11:10;13.10;99.90
6988;DHT22;3534;49.960;8.018;2023-11-22T14:13:37;13.10;99.90
6988;DHT22;3534;49.960;8.018;2023-11-22T14:16:05;13.10;99.90
6988;DHT22;3534;49.960;8.018;2023-11-22T14:18:32;13.00;99.90
6988;DHT22;3534;49.960;8.018;2023-11-22T14:20:59;12.90;99.90
6988;DHT22;3534;49.960;8.018;2023-11-22T14:23:27;12.70;99.90
6988;DHT22;3534;49.960;8.018;2023-11-22T14:25:53;12.60;99.90
6988;DHT22;3534;49.960;8.018;2023-11-22T14:28:22;12.50;99.90
6988;DHT22;3534;49.960;8.018;2023-11-22T14:30:48;12.60;99.90
6988;DHT22;3534;49.960;8.018;2023-11-22T14:33:19;12.60;99.90
6988;DHT22;3534;49.960;8.018;2023-11-22T14:35:46;12.60;99.90
6988;DHT22;3534;49.960;8.018;2023-11-22T14:38:13;12.70;99.90
6988;DHT22;3534;49.960;8.018;2023-11-22T14:40:41;12.70;99.90
6988;DHT22;3534;49.960;8.018;2023-11-22T14:43:07;12.90;99.90
6988;DHT22;3534;49.960;8.018;2023-11-22T14:45:34;12.90;99.90
6988;DHT22;3534;49.960;8.018;2023-11-22T14:48:02;13.00;99.90
6988;DHT22;3534;49.960;8.018;2023-11-22T14:50:29;13.00;99.90
6988;DHT22;3534;49.960;8.018;2023-11-22T14:52:56;12.90;99.90
6988;DHT22;3534;49.960;8.018;2023-11-22T14:55:23;12.80;99.90
6988;DHT22;3534;49.960;8.018;2023-11-22T14:57:53;12.70;99.90
6988;DHT22;3534;49.960;8.018;2023-11-22T15:00:22;12.70;99.90
6988;DHT22;3534;49.960;8.018;2023-11-22T15:02:49;12.50;99.90
6988;DHT22;3534;49.960;8.018;2023-11-22T15:05:19;12.40;99.90
6988;DHT22;3534;49.960;8.018;2023-11-22T15:07:45;12.30;99.90
6988;DHT22;3534;49.960;8.018;2023-11-22T15:10:12;12.20;99.90
6988;DHT22;3534;49.960;8.018;2023-11-22T15:12:40;12.10;99.90
6988;DHT22;3534;49.960;8.018;2023-11-22T15:15:09;11.90;99.90
6988;DHT22;3534;49.960;8.018;2023-11-22T15:17:37;11.70;99.90
6988;DHT22;3534;49.960;8.018;2023-11-22T15:20:05;11.50;99.90
6988;DHT22;3534;49.960;8.018;2023-11-22T15:22:35;11.30;99.90
6988;DHT22;3534;49.960;8.018;2023-11-22T15:25:02;11.10;99.90
6988;DHT22;3534;49.960;8.018;2023-11-22T15:27:30;11.00;99.90
6988;DHT22;3534;49.960;8.018;2023-11-22T15:29:57;10.80;99.90
6988;DHT22;3534;49.960;8.018;2023-11-22T15:32:25;10.70;99.90
6988;DHT22;3534;49.960;8.018;2023-11-22T15:34:52;10.60;99.90
6988;DHT22;3534;49.960;8.018;2023-11-22T15:37:19;10.50;99.90
6988;DHT22;3534;49.960;8.018;2023-11-22T15:39:45;10.50;99.90
6988;DHT22;3534;49.960;8.018;2023-11-22T15:42:12;10.40;99.90
6988;DHT22;3534;49.960;8.018;2023-11-22T15:44:39;10.40;99.90
6988;DHT22;3534;49.960;8.018;2023-11-22T15:47:07;10.30;99.90
6988;DHT22;3534;49.960;8.018;2023-11-22T15:49:35;10.30;99.90
6988;DHT22;3534;49.960;8.018;2023-11-22T15:52:02;10.20;99.90
6988;DHT22;3534;49.960;8.018;2023-11-22T15:54:29;10.20;99.90
6988;DHT22;3534;49.960;8.018;2023-11-22T15:56:56;10.10;99.90
6988;DHT22;3534;49.960;8.018;2023-11-22T15:59:22;10.10;99.90
6988;DHT22;3534;49.960;8.018;2023-11-22T16:01:50;10.00;99.90
6988;DHT22;3534;49.960;8.018;2023-11-22T16:04:16;10.00;99.90
6988;DHT22;3534;49.960;8.018;2023-11-22T16:06:44;9.90;99.90
6988;DHT22;3534;49.960;8.018;2023-11-22T16:09:14;9.70;99.90
6988;DHT22;3534;49.960;8.018;2023-11-22T16:11:40;9.70;99.90
6988;DHT22;3534;49.960;8.018;2023-11-22T16:14:07;9.70;99.90
6988;DHT22;3534;49.960;8.018;2023-11-22T16:16:35;9.70;99.90